sensor_id;sensor_type;location;lat;lon;timestamp;pressure;altitude;pressure_sealevel;temperature;humidity
39341;BME280;25059;52.132;21.062;2023-04-04T00:01:21;101219.31;;;1.58;100.00
39341;BME280;25059;52.132;21.062;2023-04-04T00:04:05;101230.78;;;1.78;99.64
39341;BME280;25059;52.132;21.062;2023-04-04T00:06:50;101236.72;;;1.70;100.00
39341;BME280;25059;52.132;21.062;2023-04-04T00:09:35;101214.94;;;1.52;100.00
39341;BME280;25059;52.132;21.062;2023-04-04T00:12:19;101220.88;;;1.44;100.00
39341;BME280;25059;52.132;21.062;2023-04-04T00:15:05;101207.09;;;1.46;100.00
39341;BME280;25059;52.132;21.062;2023-04-04T00:17:49;101214.84;;;1.45;100.00
39341;BME280;25059;52.132;21.062;2023-04-04T00:20:35;101219.91;;;1.36;100.00
39341;BME280;25059;52.132;21.062;2023-04-04T00:23:19;101216.53;;;1.43;100.00
39341;BME280;25059;52.132;21.062;2023-04-04T00:26:04;101214.88;;;1.48;100.00
39341;BME280;25059;52.132;21.062;2023-04-04T00:28:49;101219.41;;;1.66;100.00
39341;BME280;25059;52.132;21.062;2023-04-04T00:31:33;101191.31;;;1.28;100.00
39341;BME280;25059;52.132;21.062;2023-04-04T00:34:18;101215.75;;;1.48;100.00
39341;BME280;25059;52.132;21.062;2023-04-04T00:37:03;101200.91;;;1.34;100.00
39341;BME280;25059;52.132;21.062;2023-04-04T00:39:50;101214.78;;;1.39;100.00
39341;BME280;25059;52.132;21.062;2023-04-04T00:42:35;101200.03;;;1.33;100.00
39341;BME280;25059;52.132;21.062;2023-04-04T00:45:20;101208.66;;;1.32;100.00
39341;BME280;25059;52.132;21.062;2023-04-04T00:48:05;101195.44;;;1.11;100.00
39341;BME280;25059;52.132;21.062;2023-04-04T00:50:49;101198.22;;;1.27;100.00
39341;BME280;25059;52.132;21.062;2023-04-04T00:53:35;101204.22;;;1.23;100.00
39341;BME280;25059;52.132;21.062;2023-04-04T00:56:21;101191.63;;;0.86;100.00
39341;BME280;25059;52.132;21.062;2023-04-04T00:59:06;101194.78;;;0.65;100.00
39341;BME280;25059;52.132;21.062;2023-04-04T01:01:51;101197.22;;;0.56;100.00
39341;BME280;25059;52.132;21.062;2023-04-04T01:04:36;101173.69;;;0.39;100.00
39341;BME280;25059;52.132;21.062;2023-04-04T01:07:21;101169.81;;;0.13;100.00
39341;BME280;25059;52.132;21.062;2023-04-04T01:10:06;101178.25;;;0.03;100.00
39341;BME280;25059;52.132;21.062;2023-04-04T01:12:50;101168.69;;;-0.03;100.00
39341;BME280;25059;52.132;21.062;2023-04-04T01:15:35;101165.16;;;-0.08;100.00
39341;BME280;25059;52.132;21.062;2023-04-04T01:18:21;101155.38;;;-0.26;100.00
39341;BME280;25059;52.132;21.062;2023-04-04T01:21:10;101173.84;;;-0.05;100.00
39341;BME280;25059;52.132;21.062;2023-04-04T01:24:03;101163.09;;;0.22;100.00
39341;BME280;25059;52.132;21.062;2023-04-04T01:26:49;101165.19;;;-0.07;100.00
39341;BME280;25059;52.132;21.062;2023-04-04T01:29:34;101166.56;;;-0.25;100.00
39341;BME280;25059;52.132;21.062;2023-04-04T01:32:28;101165.66;;;-0.29;100.00
39341;BME280;25059;52.132;21.062;2023-04-04T01:35:25;101167.38;;;-0.28;100.00
39341;BME280;25059;52.132;21.062;2023-04-04T01:38:21;101155.25;;;-0.32;100.00
39341;BME280;25059;52.132;21.062;2023-04-04T01:41:08;101170.34;;;-0.53;100.00
39341;BME280;25059;52.132;21.062;2023-04-04T01:43:54;101165.44;;;-0.41;100.00
39341;BME280;25059;52.132;21.062;2023-04-04T01:46:38;101175.47;;;-0.56;100.00
39341;BME280;25059;52.132;21.062;2023-04-04T01:49:23;101178.16;;;-0.50;100.00
39341;BME280;25059;52.132;21.062;2023-04-04T01:52:08;101165.66;;;-0.74;100.00
39341;BME280;25059;52.132;21.062;2023-04-04T01:54:53;101173.44;;;-0.71;100.00
39341;BME280;25059;52.132;21.062;2023-04-04T01:57:37;101169.91;;;-0.76;100.00
39341;BME280;25059;52.132;21.062;2023-04-04T02:00:22;101179.00;;;-0.51;100.00
39341;BME280;25059;52.132;21.062;2023-04-04T02:03:06;101155.47;;;-0.67;100.00
39341;BME280;25059;52.132;21.062;2023-04-04T02:05:51;101170.03;;;-0.70;100.00
39341;BME280;25059;52.132;21.062;2023-04-04T02:08:36;101180.47;;;-0.64;100.00
39341;BME280;25059;52.132;21.062;2023-04-04T02:11:21;101151.84;;;-0.76;100.00
39341;BME280;25059;52.132;21.062;2023-04-04T02:14:06;101175.34;;;-0.62;100.00
39341;BME280;25059;52.132;21.062;2023-04-04T02:16:50;101167.44;;;-0.70;100.00
39341;BME280;25059;52.132;21.062;2023-04-04T02:19:35;101180.78;;;-0.49;100.00
39341;BME280;25059;52.132;21.062;2023-04-04T02:22:20;101183.03;;;-0.66;100.00
39341;BME280;25059;52.132;21.062;2023-04-04T02:25:04;101182.13;;;-0.68;100.00
39341;BME280;25059;52.132;21.062;2023-04-04T02:27:49;101176.91;;;-0.71;100.00
39341;BME280;25059;52.132;21.062;2023-04-04T02:30:33;101174.31;;;-0.71;100.00
39341;BME280;25059;52.132;21.062;2023-04-04T02:33:18;101170.69;;;-0.80;100.00
39341;BME280;25059;52.132;21.062;2023-04-04T02:36:03;101172.50;;;-0.76;100.00
39341;BME280;25059;52.132;21.062;2023-04-04T02:38:47;101187.47;;;-0.58;100.00
39341;BME280;25059;52.132;21.062;2023-04-04T02:41:32;101184.66;;;-0.71;100.00
39341;BME280;25059;52.132;21.062;2023-04-04T02:44:16;101183.47;;;-0.86;100.00
39341;BME280;25059;52.132;21.062;2023-04-04T02:47:00;101187.97;;;-0.76;100.00
39341;BME280;25059;52.132;21.062;2023-04-04T02:49:45;101193.91;;;-0.80;100.00
39341;BME280;25059;52.132;21.062;2023-04-04T02:52:30;101176.19;;;-1.06;100.00
39341;BME280;25059;52.132;21.062;2023-04-04T02:55:14;101179.13;;;-0.89;100.00
39341;BME280;25059;52.132;21.062;2023-04-04T02:57:59;101197.22;;;-0.87;100.00
39341;BME280;25059;52.132;21.062;2023-04-04T03:00:45;101191.31;;;-0.82;100.00
39341;BME280;25059;52.132;21.062;2023-04-04T03:03:30;101178.19;;;-0.92;100.00
39341;BME280;25059;52.132;21.062;2023-04-04T03:06:15;101197.66;;;-1.07;100.00
39341;BME280;25059;52.132;21.062;2023-04-04T03:09:00;101190.72;;;-1.09;100.00
39341;BME280;25059;52.132;21.062;2023-04-04T03:11:45;101185.50;;;-1.12;100.00
39341;BME280;25059;52.132;21.062;2023-04-04T03:14:30;101191.69;;;-1.04;100.00
39341;BME280;25059;52.132;21.062;2023-04-04T03:17:15;101187.28;;;-1.10;100.00
39341;BME280;25059;52.132;21.062;2023-04-04T03:20:01;101197.78;;;-1.01;100.00
39341;BME280;25059;52.132;21.062;2023-04-04T03:22:46;101192.31;;;-0.75;100.00
39341;BME280;25059;52.132;21.062;2023-04-04T03:25:30;101188.03;;;-0.73;100.00
39341;BME280;25059;52.132;21.062;2023-04-04T03:28:15;101174.88;;;-0.85;100.00
39341;BME280;25059;52.132;21.062;2023-04-04T03:31:04;101187.38;;;-0.63;100.00
39341;BME280;25059;52.132;21.062;2023-04-04T03:33:49;101188.75;;;-0.80;100.00
39341;BME280;25059;52.132;21.062;2023-04-04T03:36:34;101186.00;;;-0.88;100.00
39341;BME280;25059;52.132;21.062;2023-04-04T03:39:18;101179.69;;;-0.60;100.00
39341;BME280;25059;52.132;21.062;2023-04-04T03:42:03;101165.53;;;-0.80;100.00
39341;BME280;25059;52.132;21.062;2023-04-04T03:44:47;101178.44;;;-1.21;100.00
39341;BME280;25059;52.132;21.062;2023-04-04T03:47:32;101190.63;;;-1.14;100.00
39341;BME280;25059;52.132;21.062;2023-04-04T03:50:16;101194.31;;;-1.03;100.00
39341;BME280;25059;52.132;21.062;2023-04-04T03:53:00;101173.50;;;-1.10;100.00
39341;BME280;25059;52.132;21.062;2023-04-04T03:55:45;101180.09;;;-1.23;100.00
39341;BME280;25059;52.132;21.062;2023-04-04T03:58:30;101194.78;;;-1.20;100.00
39341;BME280;25059;52.132;21.062;2023-04-04T04:01:15;101189.88;;;-1.08;100.00
39341;BME280;25059;52.132;21.062;2023-04-04T04:03:59;101191.97;;;-0.90;100.00
39341;BME280;25059;52.132;21.062;2023-04-04T04:06:44;101184.75;;;-1.07;100.00
39341;BME280;25059;52.132;21.062;2023-04-04T04:09:29;101182.31;;;-1.01;100.00
39341;BME280;25059;52.132;21.062;2023-04-04T04:12:14;101183.09;;;-1.05;100.00
39341;BME280;25059;52.132;21.062;2023-04-04T04:14:58;101178.88;;;-1.00;100.00
39341;BME280;25059;52.132;21.062;2023-04-04T04:17:43;101191.31;;;-0.82;100.00
39341;BME280;25059;52.132;21.062;2023-04-04T04:20:27;101173.78;;;-0.96;100.00
39341;BME280;25059;52.132;21.062;2023-04-04T04:23:12;101183.44;;;-0.88;100.00
39341;BME280;25059;52.132;21.062;2023-04-04T04:25:57;101190.34;;;-0.87;100.00
39341;BME280;25059;52.132;21.062;2023-04-04T04:28:41;101175.09;;;-0.75;100.00
39341;BME280;25059;52.132;21.062;2023-04-04T04:31:26;101183.28;;;-0.53;100.00
39341;BME280;25059;52.132;21.062;2023-04-04T04:34:10;101181.56;;;-0.53;100.00
39341;BME280;25059;52.132;21.062;2023-04-04T04:36:55;101182.22;;;-0.63;100.00
39341;BME280;25059;52.132;21.062;2023-04-04T04:39:39;101183.28;;;-0.53;100.00
39341;BME280;25059;52.132;21.062;2023-04-04T04:42:24;101177.03;;;-0.64;100.00
39341;BME280;25059;52.132;21.062;2023-04-04T04:45:09;101171.16;;;-0.56;100.00
39341;BME280;25059;52.132;21.062;2023-04-04T04:47:54;101181.66;;;-0.48;100.00
39341;BME280;25059;52.132;21.062;2023-04-04T04:50:38;101171.28;;;-0.50;100.00
39341;BME280;25059;52.132;21.062;2023-04-04T04:53:23;101172.72;;;-0.64;100.00
39341;BME280;25059;52.132;21.062;2023-04-04T04:56:07;101169.66;;;-0.45;100.00
39341;BME280;25059;52.132;21.062;2023-04-04T04:58:52;101166.66;;;-0.21;100.00
39341;BME280;25059;52.132;21.062;2023-04-04T05:01:36;101153.56;;;-0.31;100.00
39341;BME280;25059;52.132;21.062;2023-04-04T05:04:21;101176.63;;;0.08;100.00
39341;BME280;25059;52.132;21.062;2023-04-04T05:07:06;101173.31;;;0.16;100.00
39341;BME280;25059;52.132;21.062;2023-04-04T05:09:51;101161.19;;;0.12;100.00
39341;BME280;25059;52.132;21.062;2023-04-04T05:12:36;101161.00;;;0.56;100.00
39341;BME280;25059;52.132;21.062;2023-04-04T05:15:24;101154.50;;;0.82;100.00
39341;BME280;25059;52.132;21.062;2023-04-04T05:18:09;101158.19;;;0.39;100.00
39341;BME280;25059;52.132;21.062;2023-04-04T05:20:54;101161.09;;;0.60;100.00
39341;BME280;25059;52.132;21.062;2023-04-04T05:23:39;101142.78;;;1.12;100.00
39341;BME280;25059;52.132;21.062;2023-04-04T05:26:24;101150.97;;;1.48;100.00
39341;BME280;25059;52.132;21.062;2023-04-04T05:29:09;101152.00;;;1.64;100.00
39341;BME280;25059;52.132;21.062;2023-04-04T05:31:53;101156.91;;;1.37;100.00
39341;BME280;25059;52.132;21.062;2023-04-04T05:34:39;101158.31;;;1.12;100.00
39341;BME280;25059;52.132;21.062;2023-04-04T05:37:23;101152.34;;;1.16;100.00
39341;BME280;25059;52.132;21.062;2023-04-04T05:40:08;101161.97;;;1.27;100.00
39341;BME280;25059;52.132;21.062;2023-04-04T05:42:55;101164.28;;;1.83;100.00
39341;BME280;25059;52.132;21.062;2023-04-04T05:45:40;101146.94;;;1.75;100.00
39341;BME280;25059;52.132;21.062;2023-04-04T05:48:25;101167.81;;;1.90;100.00
39341;BME280;25059;52.132;21.062;2023-04-04T05:51:09;101164.25;;;1.79;100.00
39341;BME280;25059;52.132;21.062;2023-04-04T05:53:54;101157.56;;;2.02;100.00
39341;BME280;25059;52.132;21.062;2023-04-04T05:56:39;101126.41;;;1.99;100.00
39341;BME280;25059;52.132;21.062;2023-04-04T05:59:24;101158.41;;;2.00;100.00
39341;BME280;25059;52.132;21.062;2023-04-04T06:02:09;101144.41;;;1.81;100.00
39341;BME280;25059;52.132;21.062;2023-04-04T06:04:55;101159.53;;;2.31;100.00
39341;BME280;25059;52.132;21.062;2023-04-04T06:11:34;101139.59;;;2.23;100.00
39341;BME280;25059;52.132;21.062;2023-04-04T06:14:25;101141.63;;;2.69;100.00
39341;BME280;25059;52.132;21.062;2023-04-04T06:17:10;101149.97;;;2.25;100.00
39341;BME280;25059;52.132;21.062;2023-04-04T06:23:51;101160.34;;;2.26;100.00
39341;BME280;25059;52.132;21.062;2023-04-04T06:26:36;101149.81;;;2.07;100.00
39341;BME280;25059;52.132;21.062;2023-04-04T06:29:21;101147.25;;;2.11;100.00
39341;BME280;25059;52.132;21.062;2023-04-04T06:32:07;101146.50;;;2.23;100.00
39341;BME280;25059;52.132;21.062;2023-04-04T06:34:52;101121.38;;;2.16;100.00
39341;BME280;25059;52.132;21.062;2023-04-04T06:37:53;101147.50;;;2.42;100.00
39341;BME280;25059;52.132;21.062;2023-04-04T06:40:39;101150.16;;;2.49;100.00
39341;BME280;25059;52.132;21.062;2023-04-04T06:43:23;101147.59;;;2.57;100.00
39341;BME280;25059;52.132;21.062;2023-04-04T06:46:09;101140.69;;;2.59;100.00
39341;BME280;25059;52.132;21.062;2023-04-04T06:48:54;101140.81;;;2.77;100.00
39341;BME280;25059;52.132;21.062;2023-04-04T06:52:09;101142.56;;;2.86;100.00
39341;BME280;25059;52.132;21.062;2023-04-04T06:54:58;101146.19;;;3.20;100.00
39341;BME280;25059;52.132;21.062;2023-04-04T06:57:43;101122.78;;;3.11;100.00
39341;BME280;25059;52.132;21.062;2023-04-04T07:00:53;101148.81;;;3.26;100.00
39341;BME280;25059;52.132;21.062;2023-04-04T07:03:39;101141.88;;;3.27;100.00
39341;BME280;25059;52.132;21.062;2023-04-04T07:06:29;101141.06;;;3.35;100.00
39341;BME280;25059;52.132;21.062;2023-04-04T07:09:28;101119.41;;;3.42;99.17
39341;BME280;25059;52.132;21.062;2023-04-04T07:12:42;101134.22;;;4.07;95.58
39341;BME280;25059;52.132;21.062;2023-04-04T07:15:32;101116.03;;;3.94;93.57
39341;BME280;25059;52.132;21.062;2023-04-04T07:18:19;101122.09;;;4.03;91.56
39341;BME280;25059;52.132;21.062;2023-04-04T07:21:04;101122.94;;;4.40;89.73
39341;BME280;25059;52.132;21.062;2023-04-04T07:23:49;101118.59;;;4.51;87.02
39341;BME280;25059;52.132;21.062;2023-04-04T07:26:43;101126.19;;;5.15;85.28
39341;BME280;25059;52.132;21.062;2023-04-04T07:29:28;101112.94;;;5.58;78.98
39341;BME280;25059;52.132;21.062;2023-04-04T07:32:15;101117.06;;;5.94;77.04
39341;BME280;25059;52.132;21.062;2023-04-04T07:35:03;101115.75;;;5.20;73.92
39341;BME280;25059;52.132;21.062;2023-04-04T07:37:49;101097.25;;;5.64;74.43
39341;BME280;25059;52.132;21.062;2023-04-04T07:40:34;101096.22;;;5.85;71.96
39341;BME280;25059;52.132;21.062;2023-04-04T07:43:20;101124.63;;;4.69;75.78
39341;BME280;25059;52.132;21.062;2023-04-04T07:46:04;101095.94;;;4.76;75.28
39341;BME280;25059;52.132;21.062;2023-04-04T07:48:50;101116.00;;;4.32;77.06
39341;BME280;25059;52.132;21.062;2023-04-04T07:51:34;101113.44;;;4.09;78.33
39341;BME280;25059;52.132;21.062;2023-04-04T07:58:24;101103.63;;;5.14;71.53
39341;BME280;25059;52.132;21.062;2023-04-04T08:01:18;101112.31;;;5.09;68.78
39341;BME280;25059;52.132;21.062;2023-04-04T08:04:03;101092.31;;;5.17;68.57
39341;BME280;25059;52.132;21.062;2023-04-04T08:06:49;101090.38;;;5.49;68.31
39341;BME280;25059;52.132;21.062;2023-04-04T08:09:36;101085.44;;;4.99;68.85
39341;BME280;25059;52.132;21.062;2023-04-04T08:12:21;101091.63;;;4.71;69.64
39341;BME280;25059;52.132;21.062;2023-04-04T08:15:13;101094.06;;;5.10;68.93
39341;BME280;25059;52.132;21.062;2023-04-04T08:18:02;101076.38;;;5.63;67.13
39341;BME280;25059;52.132;21.062;2023-04-04T08:20:47;101091.09;;;5.73;65.82
39341;BME280;25059;52.132;21.062;2023-04-04T08:23:40;101081.44;;;5.84;64.92
39341;BME280;25059;52.132;21.062;2023-04-04T08:26:27;101081.41;;;5.89;63.20
39341;BME280;25059;52.132;21.062;2023-04-04T08:29:24;101062.81;;;6.27;63.09
39341;BME280;25059;52.132;21.062;2023-04-04T08:32:14;101063.53;;;7.15;60.33
39341;BME280;25059;52.132;21.062;2023-04-04T08:34:59;101069.28;;;6.75;58.50
39341;BME280;25059;52.132;21.062;2023-04-04T08:37:45;101073.97;;;7.16;57.65
39341;BME280;25059;52.132;21.062;2023-04-04T08:40:34;101050.31;;;7.82;55.98
39341;BME280;25059;52.132;21.062;2023-04-04T08:43:24;101064.25;;;7.84;55.31
39341;BME280;25059;52.132;21.062;2023-04-04T08:46:17;101061.69;;;7.80;54.29
39341;BME280;25059;52.132;21.062;2023-04-04T08:49:06;101060.78;;;8.34;53.26
39341;BME280;25059;52.132;21.062;2023-04-04T08:52:00;101054.13;;;8.14;51.69
39341;BME280;25059;52.132;21.062;2023-04-04T08:54:57;101035.69;;;7.12;54.00
39341;BME280;25059;52.132;21.062;2023-04-04T08:57:43;101060.88;;;7.18;56.63
39341;BME280;25059;52.132;21.062;2023-04-04T09:00:34;101068.88;;;6.32;60.24
39341;BME280;25059;52.132;21.062;2023-04-04T09:03:43;101072.09;;;5.54;62.92
39341;BME280;25059;52.132;21.062;2023-04-04T09:06:52;101058.22;;;5.49;65.66
39341;BME280;25059;52.132;21.062;2023-04-04T09:09:48;101076.72;;;5.08;67.97
39341;BME280;25059;52.132;21.062;2023-04-04T09:13:18;101064.03;;;5.89;66.92
39341;BME280;25059;52.132;21.062;2023-04-04T09:16:06;101062.81;;;6.28;64.01
39341;BME280;25059;52.132;21.062;2023-04-04T09:22:29;101060.16;;;6.31;60.98
39341;BME280;25059;52.132;21.062;2023-04-04T09:25:15;101052.31;;;6.34;59.34
39341;BME280;25059;52.132;21.062;2023-04-04T09:28:41;101058.66;;;6.07;56.44
39341;BME280;25059;52.132;21.062;2023-04-04T09:31:29;101072.81;;;5.76;57.94
39341;BME280;25059;52.132;21.062;2023-04-04T09:34:19;101054.66;;;5.61;59.31
39341;BME280;25059;52.132;21.062;2023-04-04T09:37:04;101083.81;;;4.72;62.70
39341;BME280;25059;52.132;21.062;2023-04-04T09:39:59;101083.78;;;4.77;65.33
39341;BME280;25059;52.132;21.062;2023-04-04T09:42:53;101077.56;;;5.14;65.91
39341;BME280;25059;52.132;21.062;2023-04-04T09:45:57;101056.16;;;5.97;62.46
39341;BME280;25059;52.132;21.062;2023-04-04T09:49:04;101044.50;;;6.31;59.13
39341;BME280;25059;52.132;21.062;2023-04-04T09:52:23;101070.50;;;7.16;56.07
39341;BME280;25059;52.132;21.062;2023-04-04T09:59:20;101063.81;;;7.56;52.33
39341;BME280;25059;52.132;21.062;2023-04-04T10:02:08;101047.19;;;8.13;52.00
39341;BME280;25059;52.132;21.062;2023-04-04T10:05:02;101055.03;;;8.13;48.90
39341;BME280;25059;52.132;21.062;2023-04-04T10:07:46;101053.56;;;7.96;48.47
39341;BME280;25059;52.132;21.062;2023-04-04T10:10:44;101061.56;;;7.32;48.01
39341;BME280;25059;52.132;21.062;2023-04-04T10:13:30;101064.72;;;6.91;47.49
39341;BME280;25059;52.132;21.062;2023-04-04T10:16:17;101075.06;;;6.20;49.30
39341;BME280;25059;52.132;21.062;2023-04-04T10:19:03;101067.63;;;5.70;49.45
39341;BME280;25059;52.132;21.062;2023-04-04T10:21:50;101033.59;;;5.91;48.32
39341;BME280;25059;52.132;21.062;2023-04-04T10:24:53;101055.75;;;7.10;46.89
39341;BME280;25059;52.132;21.062;2023-04-04T10:27:43;101052.28;;;7.09;45.35
39341;BME280;25059;52.132;21.062;2023-04-04T10:30:28;101050.81;;;8.96;42.92
39341;BME280;25059;52.132;21.062;2023-04-04T10:33:26;101060.88;;;9.92;42.79
39341;BME280;25059;52.132;21.062;2023-04-04T10:36:15;101040.00;;;9.12;44.38
39341;BME280;25059;52.132;21.062;2023-04-04T10:39:28;101041.88;;;9.45;42.91
39341;BME280;25059;52.132;21.062;2023-04-04T10:46:22;101013.09;;;10.75;37.01
39341;BME280;25059;52.132;21.062;2023-04-04T10:51:00;101010.41;;;13.10;34.81
39341;BME280;25059;52.132;21.062;2023-04-04T10:53:44;101014.00;;;9.75;36.63
39341;BME280;25059;52.132;21.062;2023-04-04T10:56:31;101043.13;;;8.44;39.34
39341;BME280;25059;52.132;21.062;2023-04-04T10:59:24;101032.00;;;8.31;39.26
39341;BME280;25059;52.132;21.062;2023-04-04T11:05:22;101027.13;;;8.59;40.34
39341;BME280;25059;52.132;21.062;2023-04-04T11:08:27;101042.38;;;8.82;41.27
39341;BME280;25059;52.132;21.062;2023-04-04T11:11:22;101019.78;;;7.81;43.36
39341;BME280;25059;52.132;21.062;2023-04-04T11:14:15;101037.63;;;7.58;44.54
39341;BME280;25059;52.132;21.062;2023-04-04T11:17:04;101050.25;;;6.62;45.58
39341;BME280;25059;52.132;21.062;2023-04-04T11:19:57;101015.13;;;6.86;44.82
39341;BME280;25059;52.132;21.062;2023-04-04T11:23:09;101026.22;;;8.60;41.75
39341;BME280;25059;52.132;21.062;2023-04-04T11:25:58;101006.50;;;9.95;38.67
39341;BME280;25059;52.132;21.062;2023-04-04T11:28:47;101009.22;;;9.91;38.09
39341;BME280;25059;52.132;21.062;2023-04-04T11:31:42;101014.50;;;10.56;35.94
39341;BME280;25059;52.132;21.062;2023-04-04T11:34:36;101017.09;;;10.26;36.61
39341;BME280;25059;52.132;21.062;2023-04-04T11:37:24;101029.44;;;9.15;38.27
39341;BME280;25059;52.132;21.062;2023-04-04T11:40:34;101029.66;;;8.62;38.92
39341;BME280;25059;52.132;21.062;2023-04-04T11:51:02;100986.72;;;8.25;40.08
39341;BME280;25059;52.132;21.062;2023-04-04T11:53:53;101003.69;;;7.53;40.81
39341;BME280;25059;52.132;21.062;2023-04-04T11:56:50;101026.19;;;7.06;41.98
39341;BME280;25059;52.132;21.062;2023-04-04T11:59:44;101011.19;;;6.53;44.22
39341;BME280;25059;52.132;21.062;2023-04-04T12:02:38;101034.72;;;6.50;46.07
39341;BME280;25059;52.132;21.062;2023-04-04T12:05:24;101010.59;;;6.28;46.66
39341;BME280;25059;52.132;21.062;2023-04-04T12:08:13;101027.69;;;6.55;48.68
39341;BME280;25059;52.132;21.062;2023-04-04T12:11:15;101016.44;;;6.48;48.74
39341;BME280;25059;52.132;21.062;2023-04-04T12:14:04;101031.34;;;6.42;48.63
39341;BME280;25059;52.132;21.062;2023-04-04T12:16:52;100993.03;;;6.41;49.43
39341;BME280;25059;52.132;21.062;2023-04-04T12:19:48;100993.69;;;7.23;47.93
39341;BME280;25059;52.132;21.062;2023-04-04T12:22:56;101000.84;;;8.62;46.60
39341;BME280;25059;52.132;21.062;2023-04-04T12:25:48;101000.94;;;8.58;43.68
39341;BME280;25059;52.132;21.062;2023-04-04T12:28:42;101015.38;;;7.85;42.91
39341;BME280;25059;52.132;21.062;2023-04-04T12:31:49;101021.19;;;7.48;43.63
39341;BME280;25059;52.132;21.062;2023-04-04T12:34:42;101023.78;;;6.16;46.50
39341;BME280;25059;52.132;21.062;2023-04-04T12:37:28;101030.25;;;5.71;48.12
39341;BME280;25059;52.132;21.062;2023-04-04T12:40:16;101027.34;;;6.07;49.11
39341;BME280;25059;52.132;21.062;2023-04-04T12:43:15;101012.00;;;5.68;50.09
39341;BME280;25059;52.132;21.062;2023-04-04T12:46:14;101030.50;;;5.36;50.87
39341;BME280;25059;52.132;21.062;2023-04-04T12:52:05;101003.75;;;5.08;55.59
39341;BME280;25059;52.132;21.062;2023-04-04T12:54:57;101028.25;;;4.69;63.04
39341;BME280;25059;52.132;21.062;2023-04-04T12:57:52;101017.78;;;4.84;63.58
39341;BME280;25059;52.132;21.062;2023-04-04T13:00:40;101005.84;;;4.27;60.93
39341;BME280;25059;52.132;21.062;2023-04-04T13:03:29;100995.38;;;4.42;60.12
39341;BME280;25059;52.132;21.062;2023-04-04T13:06:15;101027.44;;;4.54;60.00
39341;BME280;25059;52.132;21.062;2023-04-04T13:09:00;101023.81;;;4.91;57.76
39341;BME280;25059;52.132;21.062;2023-04-04T13:11:56;100997.81;;;4.80;56.14
39341;BME280;25059;52.132;21.062;2023-04-04T13:14:59;101024.28;;;5.54;55.22
39341;BME280;25059;52.132;21.062;2023-04-04T13:17:49;101015.31;;;5.88;53.96
39341;BME280;25059;52.132;21.062;2023-04-04T13:20:34;101019.91;;;5.60;53.78
39341;BME280;25059;52.132;21.062;2023-04-04T13:23:23;101010.00;;;6.02;54.24
39341;BME280;25059;52.132;21.062;2023-04-04T13:26:10;101011.13;;;6.58;52.93
39341;BME280;25059;52.132;21.062;2023-04-04T13:29:00;101020.22;;;6.22;53.18
39341;BME280;25059;52.132;21.062;2023-04-04T13:31:45;100999.09;;;6.44;50.07
39341;BME280;25059;52.132;21.062;2023-04-04T13:34:30;100993.56;;;5.91;50.71
39341;BME280;25059;52.132;21.062;2023-04-04T13:37:25;101011.69;;;6.07;51.59
39341;BME280;25059;52.132;21.062;2023-04-04T13:40:13;101005.63;;;6.02;50.66
39341;BME280;25059;52.132;21.062;2023-04-04T13:43:09;100995.31;;;5.87;51.35
39341;BME280;25059;52.132;21.062;2023-04-04T13:46:17;101001.19;;;6.12;52.13
39341;BME280;25059;52.132;21.062;2023-04-04T13:52:05;100999.59;;;4.73;55.54
39341;BME280;25059;52.132;21.062;2023-04-04T13:54:50;101013.53;;;4.60;56.98
39341;BME280;25059;52.132;21.062;2023-04-04T13:57:43;100985.44;;;5.17;56.07
39341;BME280;25059;52.132;21.062;2023-04-04T14:00:28;101003.44;;;5.52;53.55
39341;BME280;25059;52.132;21.062;2023-04-04T14:03:13;101005.03;;;5.71;51.33
39341;BME280;25059;52.132;21.062;2023-04-04T14:06:00;100997.09;;;5.82;51.09
39341;BME280;25059;52.132;21.062;2023-04-04T14:08:44;100991.50;;;6.22;50.42
39341;BME280;25059;52.132;21.062;2023-04-04T14:11:32;101006.88;;;6.47;50.03
39341;BME280;25059;52.132;21.062;2023-04-04T14:14:28;101005.72;;;5.93;51.26
39341;BME280;25059;52.132;21.062;2023-04-04T14:17:16;101005.94;;;5.66;51.48
39341;BME280;25059;52.132;21.062;2023-04-04T14:20:02;101001.00;;;5.29;52.38
39341;BME280;25059;52.132;21.062;2023-04-04T14:22:48;100988.13;;;5.08;52.66
39341;BME280;25059;52.132;21.062;2023-04-04T14:25:33;100995.72;;;5.37;52.66
39341;BME280;25059;52.132;21.062;2023-04-04T14:28:20;100998.22;;;5.54;50.74
39341;BME280;25059;52.132;21.062;2023-04-04T14:34:04;100993.91;;;5.49;51.06
39341;BME280;25059;52.132;21.062;2023-04-04T14:36:57;100985.75;;;5.89;49.76
39341;BME280;25059;52.132;21.062;2023-04-04T14:39:42;100991.38;;;5.37;49.78
39341;BME280;25059;52.132;21.062;2023-04-04T14:42:27;100979.34;;;6.91;48.31
39341;BME280;25059;52.132;21.062;2023-04-04T14:45:15;100980.25;;;7.45;46.74
39341;BME280;25059;52.132;21.062;2023-04-04T14:48:04;100970.78;;;7.38;46.00
39341;BME280;25059;52.132;21.062;2023-04-04T14:50:50;100980.97;;;6.98;46.51
39341;BME280;25059;52.132;21.062;2023-04-04T14:53:39;100978.91;;;6.59;47.42
39341;BME280;25059;52.132;21.062;2023-04-04T14:56:24;100986.69;;;6.63;47.29
39341;BME280;25059;52.132;21.062;2023-04-04T14:59:12;100960.28;;;6.14;47.94
39341;BME280;25059;52.132;21.062;2023-04-04T15:01:57;100993.22;;;6.26;48.67
39341;BME280;25059;52.132;21.062;2023-04-04T15:04:51;100980.41;;;6.03;49.21
39341;BME280;25059;52.132;21.062;2023-04-04T15:07:36;100965.16;;;5.57;49.54
39341;BME280;25059;52.132;21.062;2023-04-04T15:10:21;100980.47;;;5.95;49.68
39341;BME280;25059;52.132;21.062;2023-04-04T15:13:08;100966.91;;;6.41;48.69
39341;BME280;25059;52.132;21.062;2023-04-04T15:15:57;100977.13;;;6.61;47.61
39341;BME280;25059;52.132;21.062;2023-04-04T15:18:43;100966.69;;;6.59;46.71